sensor_id;sensor_type;location;lat;lon;timestamp;P1;durP1;ratioP1;P2;durP2;ratioP2
42006;SDS011;27696;42.704;23.304;2024-03-17T00:00:45;34.13;;;24.08;;
42006;SDS011;27696;42.704;23.304;2024-03-17T00:03:11;35.72;;;24.98;;
42006;SDS011;27696;42.704;23.304;2024-03-17T00:05:36;36.22;;;25.27;;
42006;SDS011;27696;42.704;23.304;2024-03-17T00:08:03;36.35;;;24.95;;
42006;SDS011;27696;42.704;23.304;2024-03-17T00:10:32;32.15;;;24.30;;
42006;SDS011;27696;42.704;23.304;2024-03-17T00:12:57;33.42;;;24.63;;
42006;SDS011;27696;42.704;23.304;2024-03-17T00:15:23;37.35;;;24.95;;
42006;SDS011;27696;42.704;23.304;2024-03-17T00:17:48;37.42;;;25.50;;
42006;SDS011;27696;42.704;23.304;2024-03-17T00:20:14;34.22;;;25.10;;
42006;SDS011;27696;42.704;23.304;2024-03-17T00:22:47;40.17;;;24.85;;
42006;SDS011;27696;42.704;23.304;2024-03-17T00:25:13;36.97;;;24.88;;
42006;SDS011;27696;42.704;23.304;2024-03-17T00:27:39;31.50;;;23.98;;
42006;SDS011;27696;42.704;23.304;2024-03-17T00:30:08;34.03;;;23.83;;
42006;SDS011;27696;42.704;23.304;2024-03-17T00:32:40;32.90;;;23.63;;
42006;SDS011;27696;42.704;23.304;2024-03-17T00:35:07;37.15;;;25.13;;
42006;SDS011;27696;42.704;23.304;2024-03-17T00:37:33;34.55;;;24.42;;
42006;SDS011;27696;42.704;23.304;2024-03-17T00:40:02;33.20;;;24.25;;
42006;SDS011;27696;42.704;23.304;2024-03-17T00:42:29;33.95;;;23.30;;
42006;SDS011;27696;42.704;23.304;2024-03-17T00:44:55;31.85;;;23.95;;
42006;SDS011;27696;42.704;23.304;2024-03-17T00:47:21;31.80;;;22.92;;
42006;SDS011;27696;42.704;23.304;2024-03-17T00:49:47;31.10;;;23.48;;
42006;SDS011;27696;42.704;23.304;2024-03-17T00:52:15;34.85;;;25.23;;
42006;SDS011;27696;42.704;23.304;2024-03-17T00:54:41;30.67;;;23.35;;
42006;SDS011;27696;42.704;23.304;2024-03-17T00:57:07;26.98;;;22.58;;
42006;SDS011;27696;42.704;23.304;2024-03-17T00:59:32;26.98;;;22.50;;
42006;SDS011;27696;42.704;23.304;2024-03-17T01:01:58;31.38;;;23.23;;
42006;SDS011;27696;42.704;23.304;2024-03-17T01:04:23;33.65;;;22.33;;
42006;SDS011;27696;42.704;23.304;2024-03-17T01:06:49;30.92;;;23.52;;
42006;SDS011;27696;42.704;23.304;2024-03-17T01:09:14;28.75;;;21.23;;
42006;SDS011;27696;42.704;23.304;2024-03-17T01:11:40;33.53;;;22.65;;
42006;SDS011;27696;42.704;23.304;2024-03-17T01:14:05;28.73;;;21.08;;
42006;SDS011;27696;42.704;23.304;2024-03-17T01:16:32;32.78;;;22.67;;
42006;SDS011;27696;42.704;23.304;2024-03-17T01:18:58;30.75;;;22.45;;
42006;SDS011;27696;42.704;23.304;2024-03-17T01:21:23;27.80;;;21.55;;
42006;SDS011;27696;42.704;23.304;2024-03-17T01:23:49;33.53;;;23.05;;
42006;SDS011;27696;42.704;23.304;2024-03-17T01:26:15;28.92;;;22.75;;
42006;SDS011;27696;42.704;23.304;2024-03-17T01:28:40;31.85;;;22.83;;
42006;SDS011;27696;42.704;23.304;2024-03-17T01:31:06;30.17;;;20.95;;
42006;SDS011;27696;42.704;23.304;2024-03-17T01:33:32;29.25;;;22.90;;
42006;SDS011;27696;42.704;23.304;2024-03-17T01:35:57;32.47;;;22.80;;
42006;SDS011;27696;42.704;23.304;2024-03-17T01:38:23;28.00;;;21.95;;
42006;SDS011;27696;42.704;23.304;2024-03-17T01:40:48;29.67;;;21.95;;
42006;SDS011;27696;42.704;23.304;2024-03-17T01:43:14;33.83;;;23.38;;
42006;SDS011;27696;42.704;23.304;2024-03-17T01:45:39;30.05;;;22.52;;
42006;SDS011;27696;42.704;23.304;2024-03-17T01:48:08;29.08;;;22.80;;
42006;SDS011;27696;42.704;23.304;2024-03-17T01:50:36;30.83;;;23.45;;
42006;SDS011;27696;42.704;23.304;2024-03-17T01:53:03;30.48;;;22.33;;
42006;SDS011;27696;42.704;23.304;2024-03-17T01:55:34;30.00;;;22.50;;
42006;SDS011;27696;42.704;23.304;2024-03-17T01:58:02;27.13;;;21.90;;
42006;SDS011;27696;42.704;23.304;2024-03-17T02:00:28;34.83;;;23.83;;
42006;SDS011;27696;42.704;23.304;2024-03-17T02:02:56;28.92;;;22.83;;
42006;SDS011;27696;42.704;23.304;2024-03-17T02:05:21;30.50;;;22.60;;
42006;SDS011;27696;42.704;23.304;2024-03-17T02:07:47;31.38;;;22.70;;
42006;SDS011;27696;42.704;23.304;2024-03-17T02:10:13;32.10;;;23.25;;
42006;SDS011;27696;42.704;23.304;2024-03-17T02:12:39;29.05;;;21.10;;
42006;SDS011;27696;42.704;23.304;2024-03-17T02:15:05;30.35;;;22.40;;
42006;SDS011;27696;42.704;23.304;2024-03-17T02:17:32;31.98;;;23.88;;
42006;SDS011;27696;42.704;23.304;2024-03-17T02:19:58;28.38;;;21.60;;
42006;SDS011;27696;42.704;23.304;2024-03-17T02:22:24;31.70;;;22.85;;
42006;SDS011;27696;42.704;23.304;2024-03-17T02:24:50;28.42;;;22.02;;
42006;SDS011;27696;42.704;23.304;2024-03-17T02:27:15;29.77;;;21.98;;
42006;SDS011;27696;42.704;23.304;2024-03-17T02:29:41;26.88;;;22.10;;
42006;SDS011;27696;42.704;23.304;2024-03-17T02:32:06;28.63;;;23.17;;
42006;SDS011;27696;42.704;23.304;2024-03-17T02:34:33;30.35;;;22.95;;
42006;SDS011;27696;42.704;23.304;2024-03-17T02:37:02;28.88;;;21.90;;
42006;SDS011;27696;42.704;23.304;2024-03-17T02:39:29;33.50;;;23.70;;
42006;SDS011;27696;42.704;23.304;2024-03-17T02:42:03;28.35;;;22.02;;
42006;SDS011;27696;42.704;23.304;2024-03-17T02:44:30;29.45;;;22.33;;
42006;SDS011;27696;42.704;23.304;2024-03-17T02:46:59;31.83;;;22.30;;
42006;SDS011;27696;42.704;23.304;2024-03-17T02:49:26;29.10;;;22.02;;
42006;SDS011;27696;42.704;23.304;2024-03-17T02:51:55;34.03;;;23.90;;
42006;SDS011;27696;42.704;23.304;2024-03-17T02:54:21;32.05;;;23.73;;
42006;SDS011;27696;42.704;23.304;2024-03-17T02:56:47;34.40;;;22.88;;
42006;SDS011;27696;42.704;23.304;2024-03-17T02:59:16;28.92;;;22.25;;
42006;SDS011;27696;42.704;23.304;2024-03-17T03:01:42;34.70;;;23.25;;
42006;SDS011;27696;42.704;23.304;2024-03-17T03:04:07;37.70;;;24.30;;
42006;SDS011;27696;42.704;23.304;2024-03-17T03:06:33;32.25;;;24.20;;
42006;SDS011;27696;42.704;23.304;2024-03-17T03:08:59;33.40;;;24.38;;
42006;SDS011;27696;42.704;23.304;2024-03-17T03:11:24;36.53;;;25.42;;
42006;SDS011;27696;42.704;23.304;2024-03-17T03:13:51;33.10;;;25.00;;
42006;SDS011;27696;42.704;23.304;2024-03-17T03:16:16;33.13;;;24.35;;
42006;SDS011;27696;42.704;23.304;2024-03-17T03:18:43;34.30;;;25.90;;
42006;SDS011;27696;42.704;23.304;2024-03-17T03:21:09;39.05;;;25.70;;
42006;SDS011;27696;42.704;23.304;2024-03-17T03:23:35;33.28;;;24.73;;
42006;SDS011;27696;42.704;23.304;2024-03-17T03:26:02;35.10;;;25.55;;
42006;SDS011;27696;42.704;23.304;2024-03-17T03:28:29;33.50;;;24.80;;
42006;SDS011;27696;42.704;23.304;2024-03-17T03:30:55;36.42;;;24.45;;
42006;SDS011;27696;42.704;23.304;2024-03-17T03:33:21;38.55;;;25.27;;
42006;SDS011;27696;42.704;23.304;2024-03-17T03:35:47;40.83;;;25.75;;
42006;SDS011;27696;42.704;23.304;2024-03-17T03:38:13;37.17;;;25.20;;
42006;SDS011;27696;42.704;23.304;2024-03-17T03:40:42;36.45;;;24.33;;
42006;SDS011;27696;42.704;23.304;2024-03-17T03:43:11;34.78;;;25.35;;
42006;SDS011;27696;42.704;23.304;2024-03-17T03:45:38;33.83;;;24.95;;
42006;SDS011;27696;42.704;23.304;2024-03-17T03:48:05;32.08;;;24.10;;
42006;SDS011;27696;42.704;23.304;2024-03-17T03:50:31;34.40;;;24.77;;
42006;SDS011;27696;42.704;23.304;2024-03-17T03:52:57;32.30;;;24.15;;
42006;SDS011;27696;42.704;23.304;2024-03-17T03:55:22;35.55;;;25.08;;
42006;SDS011;27696;42.704;23.304;2024-03-17T03:57:49;38.13;;;26.55;;
42006;SDS011;27696;42.704;23.304;2024-03-17T04:00:17;34.55;;;25.30;;
42006;SDS011;27696;42.704;23.304;2024-03-17T04:02:49;32.17;;;23.63;;
42006;SDS011;27696;42.704;23.304;2024-03-17T04:05:16;32.42;;;24.10;;
42006;SDS011;27696;42.704;23.304;2024-03-17T04:07:42;35.80;;;25.20;;
42006;SDS011;27696;42.704;23.304;2024-03-17T04:10:10;34.25;;;24.50;;
42006;SDS011;27696;42.704;23.304;2024-03-17T04:12:36;35.72;;;25.00;;
42006;SDS011;27696;42.704;23.304;2024-03-17T04:15:03;37.45;;;25.83;;
42006;SDS011;27696;42.704;23.304;2024-03-17T04:17:31;39.00;;;25.77;;
42006;SDS011;27696;42.704;23.304;2024-03-17T04:19:59;34.55;;;25.30;;
42006;SDS011;27696;42.704;23.304;2024-03-17T04:22:24;36.90;;;25.50;;
42006;SDS011;27696;42.704;23.304;2024-03-17T04:24:50;37.03;;;25.65;;
42006;SDS011;27696;42.704;23.304;2024-03-17T04:27:25;34.83;;;25.17;;
42006;SDS011;27696;42.704;23.304;2024-03-17T04:29:52;38.33;;;26.35;;
42006;SDS011;27696;42.704;23.304;2024-03-17T04:32:19;38.47;;;25.88;;
42006;SDS011;27696;42.704;23.304;2024-03-17T04:34:44;38.80;;;25.75;;
42006;SDS011;27696;42.704;23.304;2024-03-17T04:37:10;36.97;;;25.02;;
42006;SDS011;27696;42.704;23.304;2024-03-17T04:39:37;35.90;;;26.60;;
42006;SDS011;27696;42.704;23.304;2024-03-17T04:42:08;36.20;;;25.85;;
42006;SDS011;27696;42.704;23.304;2024-03-17T04:44:33;41.22;;;27.48;;
42006;SDS011;27696;42.704;23.304;2024-03-17T04:46:59;37.83;;;27.38;;
42006;SDS011;27696;42.704;23.304;2024-03-17T04:49:24;36.30;;;26.25;;
42006;SDS011;27696;42.704;23.304;2024-03-17T04:51:50;39.30;;;25.88;;
42006;SDS011;27696;42.704;23.304;2024-03-17T04:54:15;34.40;;;25.50;;
42006;SDS011;27696;42.704;23.304;2024-03-17T04:56:41;38.85;;;26.33;;
42006;SDS011;27696;42.704;23.304;2024-03-17T04:59:06;34.25;;;25.77;;
42006;SDS011;27696;42.704;23.304;2024-03-17T05:01:32;36.45;;;26.95;;
42006;SDS011;27696;42.704;23.304;2024-03-17T05:04:02;39.65;;;27.23;;
42006;SDS011;27696;42.704;23.304;2024-03-17T05:06:28;38.30;;;25.38;;
42006;SDS011;27696;42.704;23.304;2024-03-17T05:08:53;38.65;;;26.33;;
42006;SDS011;27696;42.704;23.304;2024-03-17T05:11:19;40.53;;;26.25;;
42006;SDS011;27696;42.704;23.304;2024-03-17T05:13:45;37.38;;;25.80;;
42006;SDS011;27696;42.704;23.304;2024-03-17T05:16:10;36.70;;;26.23;;
42006;SDS011;27696;42.704;23.304;2024-03-17T05:18:36;37.63;;;26.40;;
42006;SDS011;27696;42.704;23.304;2024-03-17T05:21:04;39.22;;;27.10;;
42006;SDS011;27696;42.704;23.304;2024-03-17T05:23:31;42.15;;;27.00;;
42006;SDS011;27696;42.704;23.304;2024-03-17T05:25:58;38.58;;;26.98;;
42006;SDS011;27696;42.704;23.304;2024-03-17T05:28:24;37.05;;;26.63;;
42006;SDS011;27696;42.704;23.304;2024-03-17T05:30:50;34.42;;;26.40;;
42006;SDS011;27696;42.704;23.304;2024-03-17T05:33:16;40.83;;;27.63;;
42006;SDS011;27696;42.704;23.304;2024-03-17T05:35:55;38.83;;;27.08;;
42006;SDS011;27696;42.704;23.304;2024-03-17T05:38:22;37.13;;;27.02;;
42006;SDS011;27696;42.704;23.304;2024-03-17T05:40:58;39.15;;;26.85;;
42006;SDS011;27696;42.704;23.304;2024-03-17T05:43:26;37.78;;;26.35;;
42006;SDS011;27696;42.704;23.304;2024-03-17T05:45:54;42.75;;;26.00;;
42006;SDS011;27696;42.704;23.304;2024-03-17T05:48:20;41.65;;;24.77;;
42006;SDS011;27696;42.704;23.304;2024-03-17T05:50:46;34.75;;;23.90;;
42006;SDS011;27696;42.704;23.304;2024-03-17T05:53:11;35.58;;;23.80;;
42006;SDS011;27696;42.704;23.304;2024-03-17T05:55:37;33.80;;;24.33;;
42006;SDS011;27696;42.704;23.304;2024-03-17T05:58:03;33.78;;;23.67;;
42006;SDS011;27696;42.704;23.304;2024-03-17T06:00:29;33.45;;;22.60;;
42006;SDS011;27696;42.704;23.304;2024-03-17T06:02:56;32.42;;;21.58;;
42006;SDS011;27696;42.704;23.304;2024-03-17T06:05:21;36.63;;;23.50;;
42006;SDS011;27696;42.704;23.304;2024-03-17T06:07:47;33.58;;;24.27;;
42006;SDS011;27696;42.704;23.304;2024-03-17T06:10:13;34.72;;;23.50;;
42006;SDS011;27696;42.704;23.304;2024-03-17T06:12:38;35.28;;;24.60;;
42006;SDS011;27696;42.704;23.304;2024-03-17T06:15:04;36.75;;;23.70;;
42006;SDS011;27696;42.704;23.304;2024-03-17T06:17:31;38.75;;;25.38;;
42006;SDS011;27696;42.704;23.304;2024-03-17T06:19:56;39.75;;;24.83;;
42006;SDS011;27696;42.704;23.304;2024-03-17T06:22:22;34.58;;;24.60;;
42006;SDS011;27696;42.704;23.304;2024-03-17T06:24:48;32.25;;;23.75;;
42006;SDS011;27696;42.704;23.304;2024-03-17T06:27:14;38.10;;;24.60;;
42006;SDS011;27696;42.704;23.304;2024-03-17T06:29:40;36.42;;;23.48;;
42006;SDS011;27696;42.704;23.304;2024-03-17T06:32:05;37.15;;;24.60;;
42006;SDS011;27696;42.704;23.304;2024-03-17T06:34:31;38.92;;;24.58;;
42006;SDS011;27696;42.704;23.304;2024-03-17T06:36:56;40.30;;;24.35;;
42006;SDS011;27696;42.704;23.304;2024-03-17T06:39:22;34.17;;;24.90;;
42006;SDS011;27696;42.704;23.304;2024-03-17T06:41:47;37.05;;;23.75;;
42006;SDS011;27696;42.704;23.304;2024-03-17T06:44:13;34.13;;;23.38;;
42006;SDS011;27696;42.704;23.304;2024-03-17T06:46:38;28.05;;;21.98;;
42006;SDS011;27696;42.704;23.304;2024-03-17T06:49:03;30.85;;;22.90;;
42006;SDS011;27696;42.704;23.304;2024-03-17T06:51:29;31.33;;;22.05;;
42006;SDS011;27696;42.704;23.304;2024-03-17T06:53:54;32.53;;;21.88;;
42006;SDS011;27696;42.704;23.304;2024-03-17T06:56:20;27.13;;;20.50;;
42006;SDS011;27696;42.704;23.304;2024-03-17T06:58:45;28.30;;;20.60;;
42006;SDS011;27696;42.704;23.304;2024-03-17T07:01:11;28.48;;;19.23;;
42006;SDS011;27696;42.704;23.304;2024-03-17T07:03:36;24.63;;;19.67;;
42006;SDS011;27696;42.704;23.304;2024-03-17T07:06:02;26.77;;;19.30;;
42006;SDS011;27696;42.704;23.304;2024-03-17T07:08:28;26.40;;;19.67;;
42006;SDS011;27696;42.704;23.304;2024-03-17T07:10:58;27.55;;;20.58;;
42006;SDS011;27696;42.704;23.304;2024-03-17T07:13:25;26.40;;;19.50;;
42006;SDS011;27696;42.704;23.304;2024-03-17T07:15:50;23.38;;;19.25;;
42006;SDS011;27696;42.704;23.304;2024-03-17T07:18:16;26.70;;;20.30;;
42006;SDS011;27696;42.704;23.304;2024-03-17T07:20:41;25.73;;;19.27;;
42006;SDS011;27696;42.704;23.304;2024-03-17T07:23:07;23.85;;;18.08;;
42006;SDS011;27696;42.704;23.304;2024-03-17T07:25:33;24.45;;;17.52;;
42006;SDS011;27696;42.704;23.304;2024-03-17T07:27:58;25.25;;;17.40;;
42006;SDS011;27696;42.704;23.304;2024-03-17T07:30:24;20.73;;;16.77;;
42006;SDS011;27696;42.704;23.304;2024-03-17T07:32:49;21.10;;;16.75;;
42006;SDS011;27696;42.704;23.304;2024-03-17T07:35:14;23.65;;;17.98;;
42006;SDS011;27696;42.704;23.304;2024-03-17T07:37:40;21.08;;;15.55;;
42006;SDS011;27696;42.704;23.304;2024-03-17T07:40:05;28.30;;;17.80;;
42006;SDS011;27696;42.704;23.304;2024-03-17T07:42:32;20.42;;;15.70;;
42006;SDS011;27696;42.704;23.304;2024-03-17T07:44:58;19.17;;;15.00;;
42006;SDS011;27696;42.704;23.304;2024-03-17T07:47:23;21.48;;;14.02;;
42006;SDS011;27696;42.704;23.304;2024-03-17T07:49:49;22.05;;;13.43;;
42006;SDS011;27696;42.704;23.304;2024-03-17T07:52:14;19.55;;;13.63;;
42006;SDS011;27696;42.704;23.304;2024-03-17T07:54:40;18.55;;;14.23;;
42006;SDS011;27696;42.704;23.304;2024-03-17T07:57:06;18.50;;;14.52;;
42006;SDS011;27696;42.704;23.304;2024-03-17T07:59:33;17.52;;;12.63;;
42006;SDS011;27696;42.704;23.304;2024-03-17T08:01:59;18.30;;;13.40;;
42006;SDS011;27696;42.704;23.304;2024-03-17T08:04:25;16.65;;;12.43;;
42006;SDS011;27696;42.704;23.304;2024-03-17T08:06:50;17.13;;;12.90;;
42006;SDS011;27696;42.704;23.304;2024-03-17T08:09:16;15.70;;;12.13;;
42006;SDS011;27696;42.704;23.304;2024-03-17T08:11:42;13.70;;;11.43;;
42006;SDS011;27696;42.704;23.304;2024-03-17T08:14:11;14.32;;;12.02;;
42006;SDS011;27696;42.704;23.304;2024-03-17T08:16:37;15.13;;;13.07;;
42006;SDS011;27696;42.704;23.304;2024-03-17T08:19:03;13.93;;;11.93;;
42006;SDS011;27696;42.704;23.304;2024-03-17T08:21:28;15.60;;;12.18;;
42006;SDS011;27696;42.704;23.304;2024-03-17T08:23:55;15.98;;;11.63;;
42006;SDS011;27696;42.704;23.304;2024-03-17T08:26:20;19.17;;;13.52;;
42006;SDS011;27696;42.704;23.304;2024-03-17T08:28:46;16.90;;;13.05;;
42006;SDS011;27696;42.704;23.304;2024-03-17T08:31:14;15.55;;;12.50;;
42006;SDS011;27696;42.704;23.304;2024-03-17T08:33:40;17.88;;;13.07;;
42006;SDS011;27696;42.704;23.304;2024-03-17T08:36:06;16.35;;;12.93;;
42006;SDS011;27696;42.704;23.304;2024-03-17T08:38:32;15.43;;;12.02;;
42006;SDS011;27696;42.704;23.304;2024-03-17T08:41:04;15.10;;;12.63;;
42006;SDS011;27696;42.704;23.304;2024-03-17T08:43:31;15.35;;;12.13;;
42006;SDS011;27696;42.704;23.304;2024-03-17T08:46:02;14.93;;;12.27;;
42006;SDS011;27696;42.704;23.304;2024-03-17T08:48:31;13.80;;;11.63;;
42006;SDS011;27696;42.704;23.304;2024-03-17T08:50:58;17.80;;;11.75;;
42006;SDS011;27696;42.704;23.304;2024-03-17T08:53:25;16.55;;;11.63;;
42006;SDS011;27696;42.704;23.304;2024-03-17T08:55:51;16.75;;;13.27;;
42006;SDS011;27696;42.704;23.304;2024-03-17T08:58:17;16.83;;;13.30;;
42006;SDS011;27696;42.704;23.304;2024-03-17T09:00:43;17.40;;;13.82;;
42006;SDS011;27696;42.704;23.304;2024-03-17T09:03:09;17.58;;;13.35;;
42006;SDS011;27696;42.704;23.304;2024-03-17T09:05:36;18.50;;;15.18;;
42006;SDS011;27696;42.704;23.304;2024-03-17T09:08:01;16.10;;;13.45;;
42006;SDS011;27696;42.704;23.304;2024-03-17T09:10:27;23.10;;;14.55;;
42006;SDS011;27696;42.704;23.304;2024-03-17T09:12:53;17.40;;;13.27;;
42006;SDS011;27696;42.704;23.304;2024-03-17T09:15:19;19.02;;;13.27;;
42006;SDS011;27696;42.704;23.304;2024-03-17T09:17:45;16.90;;;13.50;;
42006;SDS011;27696;42.704;23.304;2024-03-17T09:20:12;21.00;;;14.20;;
42006;SDS011;27696;42.704;23.304;2024-03-17T09:22:41;16.92;;;12.77;;
42006;SDS011;27696;42.704;23.304;2024-03-17T09:25:07;19.25;;;12.88;;
42006;SDS011;27696;42.704;23.304;2024-03-17T09:27:33;14.07;;;11.95;;
42006;SDS011;27696;42.704;23.304;2024-03-17T09:30:02;15.32;;;11.95;;
42006;SDS011;27696;42.704;23.304;2024-03-17T09:32:31;16.63;;;12.40;;
42006;SDS011;27696;42.704;23.304;2024-03-17T09:34:56;15.65;;;11.43;;
42006;SDS011;27696;42.704;23.304;2024-03-17T09:37:22;15.75;;;11.85;;
42006;SDS011;27696;42.704;23.304;2024-03-17T09:39:48;13.88;;;10.05;;
42006;SDS011;27696;42.704;23.304;2024-03-17T09:42:18;10.82;;;9.68;;
42006;SDS011;27696;42.704;23.304;2024-03-17T09:44:47;12.02;;;10.05;;
42006;SDS011;27696;42.704;23.304;2024-03-17T09:47:16;15.90;;;10.52;;
42006;SDS011;27696;42.704;23.304;2024-03-17T09:49:47;12.77;;;9.57;;
42006;SDS011;27696;42.704;23.304;2024-03-17T09:52:20;9.70;;;8.02;;
42006;SDS011;27696;42.704;23.304;2024-03-17T09:54:49;10.18;;;8.45;;
42006;SDS011;27696;42.704;23.304;2024-03-17T09:57:18;10.18;;;7.57;;
42006;SDS011;27696;42.704;23.304;2024-03-17T09:59:49;8.93;;;6.25;;
42006;SDS011;27696;42.704;23.304;2024-03-17T10:02:16;9.68;;;6.22;;
42006;SDS011;27696;42.704;23.304;2024-03-17T10:04:46;10.70;;;8.05;;
42006;SDS011;27696;42.704;23.304;2024-03-17T10:07:12;9.13;;;8.10;;
42006;SDS011;27696;42.704;23.304;2024-03-17T10:09:37;9.77;;;7.65;;
42006;SDS011;27696;42.704;23.304;2024-03-17T10:12:04;9.85;;;7.45;;
42006;SDS011;27696;42.704;23.304;2024-03-17T10:14:30;11.82;;;8.07;;
42006;SDS011;27696;42.704;23.304;2024-03-17T10:16:56;8.52;;;6.65;;
42006;SDS011;27696;42.704;23.304;2024-03-17T10:19:22;8.88;;;6.97;;
42006;SDS011;27696;42.704;23.304;2024-03-17T10:21:49;7.45;;;6.50;;
42006;SDS011;27696;42.704;23.304;2024-03-17T10:24:19;10.20;;;7.57;;
42006;SDS011;27696;42.704;23.304;2024-03-17T10:26:52;8.13;;;7.13;;
42006;SDS011;27696;42.704;23.304;2024-03-17T10:29:29;6.18;;;5.57;;
42006;SDS011;27696;42.704;23.304;2024-03-17T10:31:56;5.80;;;5.00;;
42006;SDS011;27696;42.704;23.304;2024-03-17T10:34:24;7.25;;;5.53;;
42006;SDS011;27696;42.704;23.304;2024-03-17T10:36:50;7.93;;;5.60;;
42006;SDS011;27696;42.704;23.304;2024-03-17T10:39:24;9.43;;;6.50;;
42006;SDS011;27696;42.704;23.304;2024-03-17T10:41:57;6.35;;;5.28;;
42006;SDS011;27696;42.704;23.304;2024-03-17T10:44:25;7.38;;;5.05;;
42006;SDS011;27696;42.704;23.304;2024-03-17T10:46:52;6.82;;;5.80;;
42006;SDS011;27696;42.704;23.304;2024-03-17T10:49:19;4.97;;;3.63;;
42006;SDS011;27696;42.704;23.304;2024-03-17T10:51:46;7.05;;;4.72;;
42006;SDS011;27696;42.704;23.304;2024-03-17T10:54:17;5.70;;;4.72;;
42006;SDS011;27696;42.704;23.304;2024-03-17T10:56:50;10.38;;;3.90;;
42006;SDS011;27696;42.704;23.304;2024-03-17T10:59:16;5.93;;;4.70;;
42006;SDS011;27696;42.704;23.304;2024-03-17T11:01:43;7.93;;;5.35;;
42006;SDS011;27696;42.704;23.304;2024-03-17T11:04:09;6.95;;;6.25;;
42006;SDS011;27696;42.704;23.304;2024-03-17T11:06:37;8.85;;;5.65;;
42006;SDS011;27696;42.704;23.304;2024-03-17T11:09:03;6.78;;;5.72;;
42006;SDS011;27696;42.704;23.304;2024-03-17T11:11:35;5.78;;;5.10;;
42006;SDS011;27696;42.704;23.304;2024-03-17T11:14:18;7.93;;;5.63;;
42006;SDS011;27696;42.704;23.304;2024-03-17T11:16:51;7.78;;;5.50;;
42006;SDS011;27696;42.704;23.304;2024-03-17T11:19:16;6.45;;;5.82;;
42006;SDS011;27696;42.704;23.304;2024-03-17T11:21:45;7.03;;;5.00;;
42006;SDS011;27696;42.704;23.304;2024-03-17T11:24:18;8.00;;;4.90;;
42006;SDS011;27696;42.704;23.304;2024-03-17T11:26:45;6.80;;;4.75;;
42006;SDS011;27696;42.704;23.304;2024-03-17T11:29:27;4.85;;;4.35;;
42006;SDS011;27696;42.704;23.304;2024-03-17T11:31:53;8.00;;;4.32;;
42006;SDS011;27696;42.704;23.304;2024-03-17T11:34:36;4.90;;;4.25;;
42006;SDS011;27696;42.704;23.304;2024-03-17T11:37:04;5.63;;;4.18;;
42006;SDS011;27696;42.704;23.304;2024-03-17T11:39:46;4.13;;;3.67;;
42006;SDS011;27696;42.704;23.304;2024-03-17T11:42:16;9.32;;;4.43;;
42006;SDS011;27696;42.704;23.304;2024-03-17T11:44:42;4.75;;;4.28;;
42006;SDS011;27696;42.704;23.304;2024-03-17T11:47:08;5.60;;;4.60;;
42006;SDS011;27696;42.704;23.304;2024-03-17T11:49:35;5.20;;;4.70;;
42006;SDS011;27696;42.704;23.304;2024-03-17T11:52:11;5.45;;;4.60;;
42006;SDS011;27696;42.704;23.304;2024-03-17T11:54:39;5.20;;;4.70;;
42006;SDS011;27696;42.704;23.304;2024-03-17T11:57:10;5.03;;;4.55;;
42006;SDS011;27696;42.704;23.304;2024-03-17T11:59:37;7.45;;;4.60;;
42006;SDS011;27696;42.704;23.304;2024-03-17T12:02:26;5.55;;;4.60;;
42006;SDS011;27696;42.704;23.304;2024-03-17T12:04:56;5.80;;;4.65;;
42006;SDS011;27696;42.704;23.304;2024-03-17T12:07:22;6.20;;;4.82;;
42006;SDS011;27696;42.704;23.304;2024-03-17T12:09:49;7.07;;;5.10;;
42006;SDS011;27696;42.704;23.304;2024-03-17T12:12:25;8.10;;;5.90;;
42006;SDS011;27696;42.704;23.304;2024-03-17T12:15:01;8.45;;;5.28;;
42006;SDS011;27696;42.704;23.304;2024-03-17T12:17:27;8.65;;;5.47;;
42006;SDS011;27696;42.704;23.304;2024-03-17T12:19:53;5.43;;;4.80;;
42006;SDS011;27696;42.704;23.304;2024-03-17T12:22:21;6.13;;;4.50;;
42006;SDS011;27696;42.704;23.304;2024-03-17T12:24:48;5.47;;;4.95;;
42006;SDS011;27696;42.704;23.304;2024-03-17T12:27:18;6.07;;;4.97;;
42006;SDS011;27696;42.704;23.304;2024-03-17T12:29:48;6.43;;;5.65;;
42006;SDS011;27696;42.704;23.304;2024-03-17T12:32:18;6.25;;;5.45;;
42006;SDS011;27696;42.704;23.304;2024-03-17T12:34:46;6.63;;;5.63;;
42006;SDS011;27696;42.704;23.304;2024-03-17T12:37:22;8.98;;;6.25;;
42006;SDS011;27696;42.704;23.304;2024-03-17T12:39:50;6.13;;;5.63;;
42006;SDS011;27696;42.704;23.304;2024-03-17T12:42:16;8.95;;;5.53;;
42006;SDS011;27696;42.704;23.304;2024-03-17T12:44:50;7.18;;;6.07;;
42006;SDS011;27696;42.704;23.304;2024-03-17T12:47:20;8.15;;;6.85;;
42006;SDS011;27696;42.704;23.304;2024-03-17T12:49:50;8.23;;;6.30;;
42006;SDS011;27696;42.704;23.304;2024-03-17T12:54:58;7.65;;;6.85;;
42006;SDS011;27696;42.704;23.304;2024-03-17T13:00:45;7.40;;;6.03;;
42006;SDS011;27696;42.704;23.304;2024-03-17T13:03:21;6.28;;;5.68;;
42006;SDS011;27696;42.704;23.304;2024-03-17T13:05:49;7.85;;;6.70;;
42006;SDS011;27696;42.704;23.304;2024-03-17T13:08:14;8.57;;;7.53;;
42006;SDS011;27696;42.704;23.304;2024-03-17T13:10:40;6.50;;;5.90;;
42006;SDS011;27696;42.704;23.304;2024-03-17T13:13:08;7.78;;;6.53;;
42006;SDS011;27696;42.704;23.304;2024-03-17T13:15:34;9.07;;;7.05;;
42006;SDS011;27696;42.704;23.304;2024-03-17T13:18:01;9.48;;;6.93;;
42006;SDS011;27696;42.704;23.304;2024-03-17T13:20:28;9.32;;;7.43;;
42006;SDS011;27696;42.704;23.304;2024-03-17T13:22:55;9.70;;;7.55;;
42006;SDS011;27696;42.704;23.304;2024-03-17T13:25:22;8.30;;;7.43;;
42006;SDS011;27696;42.704;23.304;2024-03-17T13:27:54;9.25;;;7.60;;
42006;SDS011;27696;42.704;23.304;2024-03-17T13:30:22;9.45;;;7.75;;
42006;SDS011;27696;42.704;23.304;2024-03-17T13:32:49;10.85;;;8.00;;
42006;SDS011;27696;42.704;23.304;2024-03-17T13:35:23;8.97;;;8.10;;
42006;SDS011;27696;42.704;23.304;2024-03-17T13:37:50;11.35;;;7.65;;
42006;SDS011;27696;42.704;23.304;2024-03-17T13:40:20;8.73;;;7.93;;
42006;SDS011;27696;42.704;23.304;2024-03-17T13:42:46;10.70;;;8.02;;
42006;SDS011;27696;42.704;23.304;2024-03-17T13:45:13;13.32;;;9.10;;
42006;SDS011;27696;42.704;23.304;2024-03-17T13:47:39;12.43;;;8.60;;
42006;SDS011;27696;42.704;23.304;2024-03-17T13:50:06;12.90;;;9.55;;
42006;SDS011;27696;42.704;23.304;2024-03-17T13:52:36;10.98;;;7.57;;
42006;SDS011;27696;42.704;23.304;2024-03-17T13:55:05;11.05;;;8.65;;
42006;SDS011;27696;42.704;23.304;2024-03-17T13:57:34;12.57;;;8.45;;
42006;SDS011;27696;42.704;23.304;2024-03-17T13:59:59;12.35;;;8.73;;
42006;SDS011;27696;42.704;23.304;2024-03-17T14:02:25;10.77;;;9.20;;
42006;SDS011;27696;42.704;23.304;2024-03-17T14:04:50;11.77;;;7.97;;
42006;SDS011;27696;42.704;23.304;2024-03-17T14:07:16;8.50;;;7.60;;
42006;SDS011;27696;42.704;23.304;2024-03-17T14:09:41;9.95;;;7.70;;
42006;SDS011;27696;42.704;23.304;2024-03-17T14:12:07;9.18;;;8.20;;
42006;SDS011;27696;42.704;23.304;2024-03-17T14:14:33;9.43;;;7.97;;
42006;SDS011;27696;42.704;23.304;2024-03-17T14:16:59;11.18;;;8.90;;
42006;SDS011;27696;42.704;23.304;2024-03-17T14:19:24;9.68;;;8.20;;
42006;SDS011;27696;42.704;23.304;2024-03-17T14:21:50;10.27;;;8.77;;